sensor_id;sensor_type;location;lat;lon;timestamp;temperature;humidity
62573;DHT22;48626;51.678;5.806;2022-08-30T00:02:11;18.20;81.00
62573;DHT22;48626;51.678;5.806;2022-08-30T00:04:37;18.20;80.80
62573;DHT22;48626;51.678;5.806;2022-08-30T00:07:03;18.20;81.20
62573;DHT22;48626;51.678;5.806;2022-08-30T00:09:30;18.20;81.10
62573;DHT22;48626;51.678;5.806;2022-08-30T00:11:56;18.10;81.40
62573;DHT22;48626;51.678;5.806;2022-08-30T00:14:22;18.10;81.40
62573;DHT22;48626;51.678;5.806;2022-08-30T00:16:50;18.10;81.30
62573;DHT22;48626;51.678;5.806;2022-08-30T00:19:15;18.10;81.60
62573;DHT22;48626;51.678;5.806;2022-08-30T00:21:41;18.10;81.70
62573;DHT22;48626;51.678;5.806;2022-08-30T00:24:07;17.90;82.40
62573;DHT22;48626;51.678;5.806;2022-08-30T00:26:32;17.90;82.40
62573;DHT22;48626;51.678;5.806;2022-08-30T00:28:58;17.80;82.80
62573;DHT22;48626;51.678;5.806;2022-08-30T00:31:23;17.70;83.10
62573;DHT22;48626;51.678;5.806;2022-08-30T00:33:49;17.70;83.10
62573;DHT22;48626;51.678;5.806;2022-08-30T00:36:15;17.70;83.20
62573;DHT22;48626;51.678;5.806;2022-08-30T00:38:40;17.70;83.50
62573;DHT22;48626;51.678;5.806;2022-08-30T00:41:06;17.60;83.90
62573;DHT22;48626;51.678;5.806;2022-08-30T00:43:33;17.60;83.60
62573;DHT22;48626;51.678;5.806;2022-08-30T00:46:00;17.60;84.10
62573;DHT22;48626;51.678;5.806;2022-08-30T00:48:30;17.60;85.00
62573;DHT22;48626;51.678;5.806;2022-08-30T00:51:00;17.60;84.20
62573;DHT22;48626;51.678;5.806;2022-08-30T00:53:34;17.60;84.50
62573;DHT22;48626;51.678;5.806;2022-08-30T00:56:01;17.60;84.40
62573;DHT22;48626;51.678;5.806;2022-08-30T00:58:31;17.60;84.00
62573;DHT22;48626;51.678;5.806;2022-08-30T01:00:57;17.60;84.40
62573;DHT22;48626;51.678;5.806;2022-08-30T01:03:24;17.50;85.80
62573;DHT22;48626;51.678;5.806;2022-08-30T01:05:51;17.40;84.70
62573;DHT22;48626;51.678;5.806;2022-08-30T01:08:19;17.40;84.80
62573;DHT22;48626;51.678;5.806;2022-08-30T01:10:46;17.40;85.20
62573;DHT22;48626;51.678;5.806;2022-08-30T01:13:13;17.30;85.30
62573;DHT22;48626;51.678;5.806;2022-08-30T01:15:41;17.30;85.60
62573;DHT22;48626;51.678;5.806;2022-08-30T01:18:07;17.30;85.80
62573;DHT22;48626;51.678;5.806;2022-08-30T01:20:42;17.20;85.80
62573;DHT22;48626;51.678;5.806;2022-08-30T01:23:15;17.20;86.00
62573;DHT22;48626;51.678;5.806;2022-08-30T01:25:44;17.20;86.70
62573;DHT22;48626;51.678;5.806;2022-08-30T01:28:16;17.10;86.20
62573;DHT22;48626;51.678;5.806;2022-08-30T01:30:42;17.10;86.50
62573;DHT22;48626;51.678;5.806;2022-08-30T01:33:10;17.10;86.80
62573;DHT22;48626;51.678;5.806;2022-08-30T01:35:49;17.10;87.10
62573;DHT22;48626;51.678;5.806;2022-08-30T01:38:20;17.10;87.30
62573;DHT22;48626;51.678;5.806;2022-08-30T01:40:47;17.10;86.80
62573;DHT22;48626;51.678;5.806;2022-08-30T01:43:13;17.10;87.20
62573;DHT22;48626;51.678;5.806;2022-08-30T01:45:40;17.20;86.80
62573;DHT22;48626;51.678;5.806;2022-08-30T01:48:07;17.30;87.00
62573;DHT22;48626;51.678;5.806;2022-08-30T01:50:33;17.30;87.00
62573;DHT22;48626;51.678;5.806;2022-08-30T01:52:59;17.30;87.00
62573;DHT22;48626;51.678;5.806;2022-08-30T01:55:24;17.40;86.90
62573;DHT22;48626;51.678;5.806;2022-08-30T01:57:50;17.40;87.00
62573;DHT22;48626;51.678;5.806;2022-08-30T02:00:16;17.40;86.60
62573;DHT22;48626;51.678;5.806;2022-08-30T02:02:42;17.40;86.40
62573;DHT22;48626;51.678;5.806;2022-08-30T02:05:09;17.50;86.30
62573;DHT22;48626;51.678;5.806;2022-08-30T02:07:34;17.50;86.10
62573;DHT22;48626;51.678;5.806;2022-08-30T02:10:00;17.40;86.20
62573;DHT22;48626;51.678;5.806;2022-08-30T02:12:25;17.40;86.10
62573;DHT22;48626;51.678;5.806;2022-08-30T02:14:52;17.30;86.50
62573;DHT22;48626;51.678;5.806;2022-08-30T02:17:17;17.20;87.20
62573;DHT22;48626;51.678;5.806;2022-08-30T02:19:43;17.10;87.40
62573;DHT22;48626;51.678;5.806;2022-08-30T02:22:10;17.10;87.20
62573;DHT22;48626;51.678;5.806;2022-08-30T02:24:36;17.10;87.10
62573;DHT22;48626;51.678;5.806;2022-08-30T02:27:01;17.10;87.00
62573;DHT22;48626;51.678;5.806;2022-08-30T02:29:27;17.10;87.20
62573;DHT22;48626;51.678;5.806;2022-08-30T02:31:53;17.00;87.10
62573;DHT22;48626;51.678;5.806;2022-08-30T02:34:19;17.00;87.20
62573;DHT22;48626;51.678;5.806;2022-08-30T02:36:45;17.00;87.10
62573;DHT22;48626;51.678;5.806;2022-08-30T02:39:12;16.90;87.10
62573;DHT22;48626;51.678;5.806;2022-08-30T02:41:38;16.90;87.70
62573;DHT22;48626;51.678;5.806;2022-08-30T02:44:05;16.90;87.80
62573;DHT22;48626;51.678;5.806;2022-08-30T02:46:31;16.80;87.60
62573;DHT22;48626;51.678;5.806;2022-08-30T02:48:57;16.80;88.10
62573;DHT22;48626;51.678;5.806;2022-08-30T02:51:23;16.80;87.70
62573;DHT22;48626;51.678;5.806;2022-08-30T02:53:48;16.80;87.60
62573;DHT22;48626;51.678;5.806;2022-08-30T02:56:14;16.80;87.60
62573;DHT22;48626;51.678;5.806;2022-08-30T02:58:41;16.80;87.90
62573;DHT22;48626;51.678;5.806;2022-08-30T03:01:08;16.70;87.90
62573;DHT22;48626;51.678;5.806;2022-08-30T03:03:35;16.70;88.00
62573;DHT22;48626;51.678;5.806;2022-08-30T03:06:01;16.60;88.40
62573;DHT22;48626;51.678;5.806;2022-08-30T03:08:28;16.70;88.20
62573;DHT22;48626;51.678;5.806;2022-08-30T03:10:54;16.60;88.00
62573;DHT22;48626;51.678;5.806;2022-08-30T03:13:22;16.60;87.90
62573;DHT22;48626;51.678;5.806;2022-08-30T03:15:48;16.60;88.00
62573;DHT22;48626;51.678;5.806;2022-08-30T03:18:19;16.70;88.00
62573;DHT22;48626;51.678;5.806;2022-08-30T03:20:45;16.70;87.90
62573;DHT22;48626;51.678;5.806;2022-08-30T03:23:11;16.70;87.90
62573;DHT22;48626;51.678;5.806;2022-08-30T03:25:37;16.60;87.80
62573;DHT22;48626;51.678;5.806;2022-08-30T03:28:04;16.60;87.90
62573;DHT22;48626;51.678;5.806;2022-08-30T03:30:30;16.60;88.00
62573;DHT22;48626;51.678;5.806;2022-08-30T03:32:56;16.60;88.10
62573;DHT22;48626;51.678;5.806;2022-08-30T03:35:22;16.60;88.30
62573;DHT22;48626;51.678;5.806;2022-08-30T03:37:48;16.60;88.60
62573;DHT22;48626;51.678;5.806;2022-08-30T03:40:16;16.60;89.30
62573;DHT22;48626;51.678;5.806;2022-08-30T03:42:43;16.60;88.30
62573;DHT22;48626;51.678;5.806;2022-08-30T03:45:10;16.60;88.30
62573;DHT22;48626;51.678;5.806;2022-08-30T03:47:36;16.60;88.30
62573;DHT22;48626;51.678;5.806;2022-08-30T03:50:03;16.50;88.20
62573;DHT22;48626;51.678;5.806;2022-08-30T03:52:29;16.60;88.20
62573;DHT22;48626;51.678;5.806;2022-08-30T03:54:54;16.50;88.10
62573;DHT22;48626;51.678;5.806;2022-08-30T03:57:20;16.50;88.20
62573;DHT22;48626;51.678;5.806;2022-08-30T03:59:46;16.40;88.30
62573;DHT22;48626;51.678;5.806;2022-08-30T04:02:12;16.40;88.30
62573;DHT22;48626;51.678;5.806;2022-08-30T04:04:37;16.40;88.40
62573;DHT22;48626;51.678;5.806;2022-08-30T04:07:03;16.30;88.40
62573;DHT22;48626;51.678;5.806;2022-08-30T04:09:28;16.30;88.70
62573;DHT22;48626;51.678;5.806;2022-08-30T04:11:54;16.30;89.20
62573;DHT22;48626;51.678;5.806;2022-08-30T04:14:20;16.30;89.20
62573;DHT22;48626;51.678;5.806;2022-08-30T04:16:47;16.40;89.00
62573;DHT22;48626;51.678;5.806;2022-08-30T04:19:13;16.30;89.60
62573;DHT22;48626;51.678;5.806;2022-08-30T04:21:39;16.20;89.50
62573;DHT22;48626;51.678;5.806;2022-08-30T04:24:05;16.20;89.50
62573;DHT22;48626;51.678;5.806;2022-08-30T04:26:31;16.20;89.60
62573;DHT22;48626;51.678;5.806;2022-08-30T04:28:56;16.20;89.80
62573;DHT22;48626;51.678;5.806;2022-08-30T04:31:22;16.20;89.70
62573;DHT22;48626;51.678;5.806;2022-08-30T04:33:48;16.20;89.90
62573;DHT22;48626;51.678;5.806;2022-08-30T04:36:14;16.20;89.80
62573;DHT22;48626;51.678;5.806;2022-08-30T04:38:40;16.10;90.10
62573;DHT22;48626;51.678;5.806;2022-08-30T04:41:11;16.10;90.20
62573;DHT22;48626;51.678;5.806;2022-08-30T04:43:39;16.10;90.10
62573;DHT22;48626;51.678;5.806;2022-08-30T04:46:06;16.10;90.00
62573;DHT22;48626;51.678;5.806;2022-08-30T04:48:32;16.10;90.10
62573;DHT22;48626;51.678;5.806;2022-08-30T04:50:58;16.10;90.20
62573;DHT22;48626;51.678;5.806;2022-08-30T04:53:23;16.10;90.10
62573;DHT22;48626;51.678;5.806;2022-08-30T04:55:49;16.10;90.40
62573;DHT22;48626;51.678;5.806;2022-08-30T04:58:14;16.10;90.40
62573;DHT22;48626;51.678;5.806;2022-08-30T05:00:42;16.00;90.20
62573;DHT22;48626;51.678;5.806;2022-08-30T05:03:08;16.10;90.30
62573;DHT22;48626;51.678;5.806;2022-08-30T05:05:34;16.00;90.30
62573;DHT22;48626;51.678;5.806;2022-08-30T05:08:10;16.00;90.50
62573;DHT22;48626;51.678;5.806;2022-08-30T05:10:42;16.00;90.70
62573;DHT22;48626;51.678;5.806;2022-08-30T05:13:09;16.00;90.90
62573;DHT22;48626;51.678;5.806;2022-08-30T05:15:35;16.00;91.00
62573;DHT22;48626;51.678;5.806;2022-08-30T05:18:03;16.00;90.90
62573;DHT22;48626;51.678;5.806;2022-08-30T05:20:29;15.90;91.00
62573;DHT22;48626;51.678;5.806;2022-08-30T05:22:55;16.00;90.90
62573;DHT22;48626;51.678;5.806;2022-08-30T05:25:29;16.00;90.90
62573;DHT22;48626;51.678;5.806;2022-08-30T05:27:56;16.00;90.90
62573;DHT22;48626;51.678;5.806;2022-08-30T05:30:23;16.00;90.90
62573;DHT22;48626;51.678;5.806;2022-08-30T05:32:49;16.00;90.90
62573;DHT22;48626;51.678;5.806;2022-08-30T05:35:17;16.00;91.10
62573;DHT22;48626;51.678;5.806;2022-08-30T05:37:43;16.00;91.00
62573;DHT22;48626;51.678;5.806;2022-08-30T05:40:10;16.00;91.10
62573;DHT22;48626;51.678;5.806;2022-08-30T05:42:37;16.00;91.20
62573;DHT22;48626;51.678;5.806;2022-08-30T05:45:06;16.00;91.30
62573;DHT22;48626;51.678;5.806;2022-08-30T05:47:32;16.10;91.40
62573;DHT22;48626;51.678;5.806;2022-08-30T05:49:58;16.10;91.50
62573;DHT22;48626;51.678;5.806;2022-08-30T05:52:24;16.20;91.40
62573;DHT22;48626;51.678;5.806;2022-08-30T05:54:55;16.10;91.40
62573;DHT22;48626;51.678;5.806;2022-08-30T05:57:24;16.20;91.40
62573;DHT22;48626;51.678;5.806;2022-08-30T05:59:49;16.20;91.40
62573;DHT22;48626;51.678;5.806;2022-08-30T06:02:15;16.30;91.40
62573;DHT22;48626;51.678;5.806;2022-08-30T06:04:41;16.30;91.40
62573;DHT22;48626;51.678;5.806;2022-08-30T06:07:07;16.40;91.40
62573;DHT22;48626;51.678;5.806;2022-08-30T06:09:32;16.30;91.30
62573;DHT22;48626;51.678;5.806;2022-08-30T06:11:58;16.50;91.20
62573;DHT22;48626;51.678;5.806;2022-08-30T06:14:24;16.50;91.10
62573;DHT22;48626;51.678;5.806;2022-08-30T06:16:50;16.40;91.00
62573;DHT22;48626;51.678;5.806;2022-08-30T06:19:17;16.60;91.00
62573;DHT22;48626;51.678;5.806;2022-08-30T06:21:47;16.60;90.90
62573;DHT22;48626;51.678;5.806;2022-08-30T06:24:13;16.60;91.00
62573;DHT22;48626;51.678;5.806;2022-08-30T06:26:42;16.60;90.90
62573;DHT22;48626;51.678;5.806;2022-08-30T06:29:10;16.60;90.90
62573;DHT22;48626;51.678;5.806;2022-08-30T06:31:36;16.70;90.80
62573;DHT22;48626;51.678;5.806;2022-08-30T06:34:02;16.70;90.70
62573;DHT22;48626;51.678;5.806;2022-08-30T06:36:28;16.70;90.70
62573;DHT22;48626;51.678;5.806;2022-08-30T06:38:55;16.70;90.70
62573;DHT22;48626;51.678;5.806;2022-08-30T06:41:26;16.80;90.80
62573;DHT22;48626;51.678;5.806;2022-08-30T06:43:53;16.80;90.70
62573;DHT22;48626;51.678;5.806;2022-08-30T06:46:24;16.90;90.70
62573;DHT22;48626;51.678;5.806;2022-08-30T06:48:51;16.90;90.70
62573;DHT22;48626;51.678;5.806;2022-08-30T06:51:25;16.90;90.60
62573;DHT22;48626;51.678;5.806;2022-08-30T06:53:51;16.90;90.50
62573;DHT22;48626;51.678;5.806;2022-08-30T06:56:18;16.90;90.40
62573;DHT22;48626;51.678;5.806;2022-08-30T06:58:44;16.90;90.50
62573;DHT22;48626;51.678;5.806;2022-08-30T07:01:20;17.00;90.40
62573;DHT22;48626;51.678;5.806;2022-08-30T07:03:46;17.10;90.50
62573;DHT22;48626;51.678;5.806;2022-08-30T07:06:12;17.20;90.50
62573;DHT22;48626;51.678;5.806;2022-08-30T07:08:39;17.10;89.80
62573;DHT22;48626;51.678;5.806;2022-08-30T07:11:05;17.20;90.00
62573;DHT22;48626;51.678;5.806;2022-08-30T07:13:32;17.30;90.00
62573;DHT22;48626;51.678;5.806;2022-08-30T07:15:58;17.40;90.00
62573;DHT22;48626;51.678;5.806;2022-08-30T07:18:24;17.60;90.00
62573;DHT22;48626;51.678;5.806;2022-08-30T07:21:14;17.70;89.80
62573;DHT22;48626;51.678;5.806;2022-08-30T07:23:42;17.80;88.30
62573;DHT22;48626;51.678;5.806;2022-08-30T07:26:10;17.90;88.10
62573;DHT22;48626;51.678;5.806;2022-08-30T07:28:38;18.00;87.90
62573;DHT22;48626;51.678;5.806;2022-08-30T07:31:05;18.10;87.50
62573;DHT22;48626;51.678;5.806;2022-08-30T07:33:31;18.10;85.80
62573;DHT22;48626;51.678;5.806;2022-08-30T07:35:57;18.20;86.20
62573;DHT22;48626;51.678;5.806;2022-08-30T07:38:24;18.50;86.50
62573;DHT22;48626;51.678;5.806;2022-08-30T07:40:50;18.60;85.20
62573;DHT22;48626;51.678;5.806;2022-08-30T07:43:15;18.70;84.70
62573;DHT22;48626;51.678;5.806;2022-08-30T07:45:41;18.80;83.70
62573;DHT22;48626;51.678;5.806;2022-08-30T07:48:07;19.00;83.80
62573;DHT22;48626;51.678;5.806;2022-08-30T07:50:36;19.10;83.00
62573;DHT22;48626;51.678;5.806;2022-08-30T07:53:01;19.20;82.10
62573;DHT22;48626;51.678;5.806;2022-08-30T07:55:27;19.20;81.30
62573;DHT22;48626;51.678;5.806;2022-08-30T07:57:53;19.20;79.40
62573;DHT22;48626;51.678;5.806;2022-08-30T08:00:19;19.30;79.70
62573;DHT22;48626;51.678;5.806;2022-08-30T08:02:44;19.40;79.20
62573;DHT22;48626;51.678;5.806;2022-08-30T08:05:10;19.60;80.10
62573;DHT22;48626;51.678;5.806;2022-08-30T08:07:36;19.80;79.20
62573;DHT22;48626;51.678;5.806;2022-08-30T08:10:02;19.80;78.80
62573;DHT22;48626;51.678;5.806;2022-08-30T08:12:28;19.90;78.40
62573;DHT22;48626;51.678;5.806;2022-08-30T08:14:54;20.10;77.90
62573;DHT22;48626;51.678;5.806;2022-08-30T08:17:19;20.20;77.20
62573;DHT22;48626;51.678;5.806;2022-08-30T08:19:45;20.30;76.20
62573;DHT22;48626;51.678;5.806;2022-08-30T08:22:11;20.40;75.50
62573;DHT22;48626;51.678;5.806;2022-08-30T08:24:36;20.40;75.30
62573;DHT22;48626;51.678;5.806;2022-08-30T08:27:02;20.40;73.50
62573;DHT22;48626;51.678;5.806;2022-08-30T08:29:28;20.50;74.40
62573;DHT22;48626;51.678;5.806;2022-08-30T08:31:54;20.50;75.20
62573;DHT22;48626;51.678;5.806;2022-08-30T08:34:21;20.60;74.00
62573;DHT22;48626;51.678;5.806;2022-08-30T08:36:50;20.70;73.70
62573;DHT22;48626;51.678;5.806;2022-08-30T08:39:16;20.70;72.60
62573;DHT22;48626;51.678;5.806;2022-08-30T08:49:16;20.90;71.80
62573;DHT22;48626;51.678;5.806;2022-08-30T08:51:42;21.00;72.70
62573;DHT22;48626;51.678;5.806;2022-08-30T08:54:34;21.10;71.10
62573;DHT22;48626;51.678;5.806;2022-08-30T08:57:01;21.10;69.40
62573;DHT22;48626;51.678;5.806;2022-08-30T08:59:27;21.20;69.70
62573;DHT22;48626;51.678;5.806;2022-08-30T09:01:56;21.30;67.60
62573;DHT22;48626;51.678;5.806;2022-08-30T09:04:29;21.40;68.90
62573;DHT22;48626;51.678;5.806;2022-08-30T09:06:59;21.40;68.50
62573;DHT22;48626;51.678;5.806;2022-08-30T09:09:33;21.60;69.30
62573;DHT22;48626;51.678;5.806;2022-08-30T09:11:59;21.70;68.30
62573;DHT22;48626;51.678;5.806;2022-08-30T09:14:30;21.60;67.50
62573;DHT22;48626;51.678;5.806;2022-08-30T09:17:01;21.70;66.50
62573;DHT22;48626;51.678;5.806;2022-08-30T09:24:48;22.20;65.30
62573;DHT22;48626;51.678;5.806;2022-08-30T09:27:32;22.30;67.50
62573;DHT22;48626;51.678;5.806;2022-08-30T09:32:39;22.30;65.00
62573;DHT22;48626;51.678;5.806;2022-08-30T09:35:09;22.50;66.60
62573;DHT22;48626;51.678;5.806;2022-08-30T09:40:14;22.50;64.60
62573;DHT22;48626;51.678;5.806;2022-08-30T09:45:33;22.80;61.60
62573;DHT22;48626;51.678;5.806;2022-08-30T09:48:04;22.90;61.40
62573;DHT22;48626;51.678;5.806;2022-08-30T09:50:45;23.00;63.50
62573;DHT22;48626;51.678;5.806;2022-08-30T09:53:19;23.10;61.90
62573;DHT22;48626;51.678;5.806;2022-08-30T09:56:10;23.10;60.10
62573;DHT22;48626;51.678;5.806;2022-08-30T10:01:19;23.30;60.60
62573;DHT22;48626;51.678;5.806;2022-08-30T10:03:50;23.40;60.30
62573;DHT22;48626;51.678;5.806;2022-08-30T10:06:27;23.50;62.60
62573;DHT22;48626;51.678;5.806;2022-08-30T10:09:15;23.40;61.50
62573;DHT22;48626;51.678;5.806;2022-08-30T10:14:51;23.50;57.30
62573;DHT22;48626;51.678;5.806;2022-08-30T10:17:45;23.50;60.90
62573;DHT22;48626;51.678;5.806;2022-08-30T10:20:18;23.80;59.80
62573;DHT22;48626;51.678;5.806;2022-08-30T10:23:05;23.80;58.90
62573;DHT22;48626;51.678;5.806;2022-08-30T10:25:37;23.70;57.30
62573;DHT22;48626;51.678;5.806;2022-08-30T10:30:55;23.90;58.00
62573;DHT22;48626;51.678;5.806;2022-08-30T10:33:30;24.10;60.10
62573;DHT22;48626;51.678;5.806;2022-08-30T10:35:59;24.30;57.30
62573;DHT22;48626;51.678;5.806;2022-08-30T10:38:33;24.40;57.00
62573;DHT22;48626;51.678;5.806;2022-08-30T10:41:28;24.50;58.70
62573;DHT22;48626;51.678;5.806;2022-08-30T10:44:02;24.70;58.50
62573;DHT22;48626;51.678;5.806;2022-08-30T10:49:10;24.80;57.30
62573;DHT22;48626;51.678;5.806;2022-08-30T10:51:43;25.10;56.80
62573;DHT22;48626;51.678;5.806;2022-08-30T10:55:16;25.60;58.60
62573;DHT22;48626;51.678;5.806;2022-08-30T10:57:16;26.10;57.20
62573;DHT22;48626;51.678;5.806;2022-08-30T10:59:45;26.30;53.00
62573;DHT22;48626;51.678;5.806;2022-08-30T11:07:40;26.60;55.00
62573;DHT22;48626;51.678;5.806;2022-08-30T11:15:26;26.90;50.20
62573;DHT22;48626;51.678;5.806;2022-08-30T11:20:47;27.10;49.70
62573;DHT22;48626;51.678;5.806;2022-08-30T11:25:58;27.50;46.90
62573;DHT22;48626;51.678;5.806;2022-08-30T11:33:54;28.10;48.30
62573;DHT22;48626;51.678;5.806;2022-08-30T11:42:08;28.40;46.90
62573;DHT22;48626;51.678;5.806;2022-08-30T11:46:48;28.40;45.20
62573;DHT22;48626;51.678;5.806;2022-08-30T11:52:07;28.60;45.20
62573;DHT22;48626;51.678;5.806;2022-08-30T11:55:15;28.70;44.90
62573;DHT22;48626;51.678;5.806;2022-08-30T12:00:30;28.50;47.50
62573;DHT22;48626;51.678;5.806;2022-08-30T12:19:08;29.50;41.30
62573;DHT22;48626;51.678;5.806;2022-08-30T12:21:35;29.60;42.30
62573;DHT22;48626;51.678;5.806;2022-08-30T12:24:03;29.60;42.40
62573;DHT22;48626;51.678;5.806;2022-08-30T12:26:37;29.30;42.50
62573;DHT22;48626;51.678;5.806;2022-08-30T12:29:17;29.10;41.60
62573;DHT22;48626;51.678;5.806;2022-08-30T12:34:17;29.10;42.60
62573;DHT22;48626;51.678;5.806;2022-08-30T12:39:27;29.40;43.60
62573;DHT22;48626;51.678;5.806;2022-08-30T12:41:53;30.00;43.20
62573;DHT22;48626;51.678;5.806;2022-08-30T12:44:26;30.00;39.80
62573;DHT22;48626;51.678;5.806;2022-08-30T12:46:59;30.30;39.80
62573;DHT22;48626;51.678;5.806;2022-08-30T12:49:30;30.20;38.80
62573;DHT22;48626;51.678;5.806;2022-08-30T12:54:45;30.70;44.30
62573;DHT22;48626;51.678;5.806;2022-08-30T12:57:11;30.90;41.70
62573;DHT22;48626;51.678;5.806;2022-08-30T12:59:50;30.90;35.40
62573;DHT22;48626;51.678;5.806;2022-08-30T13:02:23;31.10;39.20
62573;DHT22;48626;51.678;5.806;2022-08-30T13:04:51;31.20;36.70
62573;DHT22;48626;51.678;5.806;2022-08-30T13:07:30;31.00;37.80
62573;DHT22;48626;51.678;5.806;2022-08-30T13:10:11;31.20;38.00
62573;DHT22;48626;51.678;5.806;2022-08-30T13:12:38;31.20;36.40
62573;DHT22;48626;51.678;5.806;2022-08-30T13:15:15;31.30;36.70
62573;DHT22;48626;51.678;5.806;2022-08-30T13:17:42;31.10;35.70
62573;DHT22;48626;51.678;5.806;2022-08-30T13:22:39;31.00;34.60
62573;DHT22;48626;51.678;5.806;2022-08-30T13:25:07;30.90;37.70
62573;DHT22;48626;51.678;5.806;2022-08-30T13:27:35;31.30;35.50
62573;DHT22;48626;51.678;5.806;2022-08-30T13:30:10;32.10;38.20
62573;DHT22;48626;51.678;5.806;2022-08-30T13:32:36;32.80;38.00
62573;DHT22;48626;51.678;5.806;2022-08-30T13:35:06;32.90;34.20
62573;DHT22;48626;51.678;5.806;2022-08-30T13:37:32;32.70;34.40
62573;DHT22;48626;51.678;5.806;2022-08-30T13:39:58;33.20;35.60
62573;DHT22;48626;51.678;5.806;2022-08-30T13:42:24;33.30;31.10
62573;DHT22;48626;51.678;5.806;2022-08-30T13:44:50;33.20;33.70
62573;DHT22;48626;51.678;5.806;2022-08-30T13:47:16;32.40;34.40
62573;DHT22;48626;51.678;5.806;2022-08-30T13:49:43;31.90;33.10
62573;DHT22;48626;51.678;5.806;2022-08-30T13:52:12;31.50;35.40
62573;DHT22;48626;51.678;5.806;2022-08-30T13:54:38;31.20;34.30
62573;DHT22;48626;51.678;5.806;2022-08-30T13:57:04;31.00;36.00
62573;DHT22;48626;51.678;5.806;2022-08-30T13:59:30;30.90;34.60
62573;DHT22;48626;51.678;5.806;2022-08-30T14:02:00;30.50;37.60
62573;DHT22;48626;51.678;5.806;2022-08-30T14:04:26;30.10;36.00
62573;DHT22;48626;51.678;5.806;2022-08-30T14:06:52;29.80;36.80
62573;DHT22;48626;51.678;5.806;2022-08-30T14:09:18;29.50;35.30
62573;DHT22;48626;51.678;5.806;2022-08-30T14:11:43;29.20;35.60
62573;DHT22;48626;51.678;5.806;2022-08-30T14:14:09;29.10;37.00
62573;DHT22;48626;51.678;5.806;2022-08-30T14:16:37;29.20;36.10
62573;DHT22;48626;51.678;5.806;2022-08-30T14:19:04;29.00;36.40
62573;DHT22;48626;51.678;5.806;2022-08-30T14:21:30;29.10;36.80
62573;DHT22;48626;51.678;5.806;2022-08-30T14:23:57;29.40;38.50
62573;DHT22;48626;51.678;5.806;2022-08-30T14:26:27;29.30;36.40
62573;DHT22;48626;51.678;5.806;2022-08-30T14:28:53;29.30;39.30
62573;DHT22;48626;51.678;5.806;2022-08-30T14:31:19;29.50;37.30
62573;DHT22;48626;51.678;5.806;2022-08-30T14:33:44;29.40;37.30
62573;DHT22;48626;51.678;5.806;2022-08-30T14:36:10;29.20;34.90
62573;DHT22;48626;51.678;5.806;2022-08-30T14:38:39;29.20;36.50
62573;DHT22;48626;51.678;5.806;2022-08-30T14:41:05;29.10;35.80
62573;DHT22;48626;51.678;5.806;2022-08-30T14:43:31;28.80;37.70
62573;DHT22;48626;51.678;5.806;2022-08-30T14:45:58;28.70;37.70
62573;DHT22;48626;51.678;5.806;2022-08-30T14:48:24;28.50;37.60
62573;DHT22;48626;51.678;5.806;2022-08-30T14:50:50;28.50;40.00
62573;DHT22;48626;51.678;5.806;2022-08-30T14:53:15;28.70;42.60
62573;DHT22;48626;51.678;5.806;2022-08-30T14:55:41;28.70;40.20
62573;DHT22;48626;51.678;5.806;2022-08-30T14:58:06;28.50;38.40
62573;DHT22;48626;51.678;5.806;2022-08-30T15:00:35;28.20;38.70
62573;DHT22;48626;51.678;5.806;2022-08-30T15:03:01;28.50;40.00
62573;DHT22;48626;51.678;5.806;2022-08-30T15:05:26;29.20;38.20
62573;DHT22;48626;51.678;5.806;2022-08-30T15:07:52;29.50;35.40
62573;DHT22;48626;51.678;5.806;2022-08-30T15:10:19;30.20;37.50
62573;DHT22;48626;51.678;5.806;2022-08-30T15:12:50;30.10;37.50
62573;DHT22;48626;51.678;5.806;2022-08-30T15:15:19;29.60;36.70
62573;DHT22;48626;51.678;5.806;2022-08-30T15:17:48;29.00;36.10
62573;DHT22;48626;51.678;5.806;2022-08-30T15:20:15;28.30;35.90
62573;DHT22;48626;51.678;5.806;2022-08-30T15:22:43;28.10;37.70
62573;DHT22;48626;51.678;5.806;2022-08-30T15:25:09;28.10;39.40
62573;DHT22;48626;51.678;5.806;2022-08-30T15:27:35;27.90;39.00
62573;DHT22;48626;51.678;5.806;2022-08-30T15:30:02;27.80;40.20
62573;DHT22;48626;51.678;5.806;2022-08-30T15:32:27;27.60;38.10
62573;DHT22;48626;51.678;5.806;2022-08-30T15:34:53;27.50;39.80
62573;DHT22;48626;51.678;5.806;2022-08-30T15:37:18;27.60;39.50
62573;DHT22;48626;51.678;5.806;2022-08-30T15:39:50;27.30;38.90
62573;DHT22;48626;51.678;5.806;2022-08-30T15:42:16;27.50;40.60
62573;DHT22;48626;51.678;5.806;2022-08-30T15:44:50;27.50;39.70
62573;DHT22;48626;51.678;5.806;2022-08-30T15:47:19;27.50;38.90
62573;DHT22;48626;51.678;5.806;2022-08-30T15:49:53;27.30;40.10
62573;DHT22;48626;51.678;5.806;2022-08-30T15:52:19;27.50;39.70
62573;DHT22;48626;51.678;5.806;2022-08-30T15:54:45;27.40;39.60
62573;DHT22;48626;51.678;5.806;2022-08-30T15:57:11;27.30;39.70
62573;DHT22;48626;51.678;5.806;2022-08-30T15:59:36;27.20;40.50
62573;DHT22;48626;51.678;5.806;2022-08-30T16:02:02;26.90;40.00
62573;DHT22;48626;51.678;5.806;2022-08-30T16:04:28;26.90;42.40
62573;DHT22;48626;51.678;5.806;2022-08-30T16:06:55;26.70;39.40
62573;DHT22;48626;51.678;5.806;2022-08-30T16:09:21;26.60;41.70
62573;DHT22;48626;51.678;5.806;2022-08-30T16:11:47;26.60;42.60
62573;DHT22;48626;51.678;5.806;2022-08-30T16:14:13;26.50;42.50
62573;DHT22;48626;51.678;5.806;2022-08-30T16:16:39;26.60;43.40
62573;DHT22;48626;51.678;5.806;2022-08-30T16:19:06;26.60;41.90
62573;DHT22;48626;51.678;5.806;2022-08-30T16:21:34;26.50;42.60
62573;DHT22;48626;51.678;5.806;2022-08-30T16:24:03;26.40;43.70
62573;DHT22;48626;51.678;5.806;2022-08-30T16:26:31;26.30;43.40
62573;DHT22;48626;51.678;5.806;2022-08-30T16:28:58;26.10;43.00
62573;DHT22;48626;51.678;5.806;2022-08-30T16:31:25;26.10;42.40
62573;DHT22;48626;51.678;5.806;2022-08-30T16:33:51;25.90;42.40
62573;DHT22;48626;51.678;5.806;2022-08-30T16:36:17;25.90;42.50
62573;DHT22;48626;51.678;5.806;2022-08-30T16:38:43;25.70;42.20
62573;DHT22;48626;51.678;5.806;2022-08-30T16:41:12;25.70;43.70
62573;DHT22;48626;51.678;5.806;2022-08-30T16:43:38;25.60;41.70
62573;DHT22;48626;51.678;5.806;2022-08-30T16:46:08;25.50;43.20
62573;DHT22;48626;51.678;5.806;2022-08-30T16:48:35;25.50;43.30
62573;DHT22;48626;51.678;5.806;2022-08-30T16:51:06;25.40;41.90
62573;DHT22;48626;51.678;5.806;2022-08-30T16:53:32;25.30;43.80
62573;DHT22;48626;51.678;5.806;2022-08-30T16:55:57;25.30;44.50
62573;DHT22;48626;51.678;5.806;2022-08-30T16:58:23;25.30;45.80
62573;DHT22;48626;51.678;5.806;2022-08-30T17:00:49;25.30;44.00
62573;DHT22;48626;51.678;5.806;2022-08-30T17:03:16;25.20;43.30
62573;DHT22;48626;51.678;5.806;2022-08-30T17:05:42;25.20;44.00
62573;DHT22;48626;51.678;5.806;2022-08-30T17:08:09;25.20;42.20
62573;DHT22;48626;51.678;5.806;2022-08-30T17:10:35;25.10;44.10